sensor_id;sensor_type;location;lat;lon;timestamp;pressure;altitude;pressure_sealevel;temperature;humidity
36222;BME280;22266;52.340;4.962;2023-01-31T00:01:35;102393.63;;;5.97;71.31
36222;BME280;22266;52.340;4.962;2023-01-31T00:04:07;102389.97;;;5.98;72.17
36222;BME280;22266;52.340;4.962;2023-01-31T00:06:37;102395.31;;;5.98;71.59
36222;BME280;22266;52.340;4.962;2023-01-31T00:09:06;102399.97;;;5.96;71.93
36222;BME280;22266;52.340;4.962;2023-01-31T00:11:32;102390.34;;;5.93;71.74
36222;BME280;22266;52.340;4.962;2023-01-31T00:14:00;102382.44;;;5.91;72.30
36222;BME280;22266;52.340;4.962;2023-01-31T00:16:28;102373.53;;;5.91;72.03
36222;BME280;22266;52.340;4.962;2023-01-31T00:18:54;102378.69;;;5.94;72.34
36222;BME280;22266;52.340;4.962;2023-01-31T00:21:26;102372.34;;;5.95;72.64
36222;BME280;22266;52.340;4.962;2023-01-31T00:23:54;102363.50;;;5.94;72.28
36222;BME280;22266;52.340;4.962;2023-01-31T00:26:25;102371.66;;;5.93;72.52
36222;BME280;22266;52.340;4.962;2023-01-31T00:28:53;102361.06;;;5.91;72.89
36222;BME280;22266;52.340;4.962;2023-01-31T00:31:21;102349.78;;;5.88;72.21
36222;BME280;22266;52.340;4.962;2023-01-31T00:33:49;102337.50;;;5.85;72.44
36222;BME280;22266;52.340;4.962;2023-01-31T00:36:18;102340.41;;;5.82;72.22
36222;BME280;22266;52.340;4.962;2023-01-31T00:38:50;102330.34;;;5.75;72.63
36222;BME280;22266;52.340;4.962;2023-01-31T00:41:19;102327.09;;;5.71;73.04
36222;BME280;22266;52.340;4.962;2023-01-31T00:43:46;102316.69;;;5.68;72.62
36222;BME280;22266;52.340;4.962;2023-01-31T00:46:13;102309.59;;;5.67;73.64
36222;BME280;22266;52.340;4.962;2023-01-31T00:48:40;102309.75;;;5.65;73.29
36222;BME280;22266;52.340;4.962;2023-01-31T00:51:06;102303.69;;;5.63;73.56
36222;BME280;22266;52.340;4.962;2023-01-31T00:53:33;102308.16;;;5.63;73.65
36222;BME280;22266;52.340;4.962;2023-01-31T00:56:15;102304.53;;;5.64;73.72
36222;BME280;22266;52.340;4.962;2023-01-31T00:58:42;102301.88;;;5.64;73.28
36222;BME280;22266;52.340;4.962;2023-01-31T01:01:15;102301.72;;;5.65;73.66
36222;BME280;22266;52.340;4.962;2023-01-31T01:03:44;102292.88;;;5.65;73.67
36222;BME280;22266;52.340;4.962;2023-01-31T01:06:12;102296.53;;;5.64;73.44
36222;BME280;22266;52.340;4.962;2023-01-31T01:08:41;102291.81;;;5.56;73.28
36222;BME280;22266;52.340;4.962;2023-01-31T01:11:13;102282.47;;;5.51;73.53
36222;BME280;22266;52.340;4.962;2023-01-31T01:13:40;102275.94;;;5.43;73.93
36222;BME280;22266;52.340;4.962;2023-01-31T01:16:10;102271.56;;;5.42;74.27
36222;BME280;22266;52.340;4.962;2023-01-31T01:18:37;102275.94;;;5.43;74.00
36222;BME280;22266;52.340;4.962;2023-01-31T01:21:08;102273.88;;;5.47;74.34
36222;BME280;22266;52.340;4.962;2023-01-31T01:23:37;102284.44;;;5.49;73.84
36222;BME280;22266;52.340;4.962;2023-01-31T01:26:04;102279.78;;;5.51;74.54
36222;BME280;22266;52.340;4.962;2023-01-31T01:28:34;102293.16;;;5.51;73.96
36222;BME280;22266;52.340;4.962;2023-01-31T01:31:05;102293.28;;;5.49;73.75
36222;BME280;22266;52.340;4.962;2023-01-31T01:33:33;102284.44;;;5.49;74.15
36222;BME280;22266;52.340;4.962;2023-01-31T01:36:01;102296.78;;;5.50;73.83
36222;BME280;22266;52.340;4.962;2023-01-31T01:38:27;102306.63;;;5.49;74.12
36222;BME280;22266;52.340;4.962;2023-01-31T01:40:54;102303.13;;;5.49;74.36
36222;BME280;22266;52.340;4.962;2023-01-31T01:43:38;102304.94;;;5.48;74.16
36222;BME280;22266;52.340;4.962;2023-01-31T01:46:05;102316.72;;;5.45;74.25
36222;BME280;22266;52.340;4.962;2023-01-31T01:48:33;102312.72;;;5.40;74.70
36222;BME280;22266;52.340;4.962;2023-01-31T01:51:03;102315.41;;;5.40;74.50
36222;BME280;22266;52.340;4.962;2023-01-31T01:53:30;102311.50;;;5.44;74.75
36222;BME280;22266;52.340;4.962;2023-01-31T01:56:04;102308.00;;;5.43;74.64
36222;BME280;22266;52.340;4.962;2023-01-31T01:58:47;102300.94;;;5.42;74.34
36222;BME280;22266;52.340;4.962;2023-01-31T02:01:20;102307.25;;;5.41;75.01
36222;BME280;22266;52.340;4.962;2023-01-31T02:03:48;102304.47;;;5.43;74.91
36222;BME280;22266;52.340;4.962;2023-01-31T02:06:16;102308.47;;;5.37;74.21
36222;BME280;22266;52.340;4.962;2023-01-31T02:08:43;102313.94;;;5.36;74.61
36222;BME280;22266;52.340;4.962;2023-01-31T02:11:21;102315.88;;;5.34;75.21
36222;BME280;22266;52.340;4.962;2023-01-31T02:13:51;102309.00;;;5.31;75.67
36222;BME280;22266;52.340;4.962;2023-01-31T02:16:18;102304.72;;;5.29;75.52
36222;BME280;22266;52.340;4.962;2023-01-31T02:18:45;102308.38;;;5.28;75.26
36222;BME280;22266;52.340;4.962;2023-01-31T02:21:18;102297.81;;;5.26;75.07
36222;BME280;22266;52.340;4.962;2023-01-31T02:32:47;102280.84;;;5.27;76.28
36222;BME280;22266;52.340;4.962;2023-01-31T02:35:23;102280.09;;;5.25;75.65
36222;BME280;22266;52.340;4.962;2023-01-31T02:38:23;102281.31;;;5.21;75.86
36222;BME280;22266;52.340;4.962;2023-01-31T02:43:51;102284.50;;;5.15;76.16
36222;BME280;22266;52.340;4.962;2023-01-31T02:46:50;102274.06;;;5.12;76.41
36222;BME280;22266;52.340;4.962;2023-01-31T02:55:07;102277.06;;;5.18;76.78
36222;BME280;22266;52.340;4.962;2023-01-31T02:57:56;102268.97;;;5.20;76.16
36222;BME280;22266;52.340;4.962;2023-01-31T03:00:25;102274.66;;;5.15;76.63
36222;BME280;22266;52.340;4.962;2023-01-31T03:02:52;102270.19;;;5.16;76.80
36222;BME280;22266;52.340;4.962;2023-01-31T03:05:19;102276.22;;;5.18;76.90
36222;BME280;22266;52.340;4.962;2023-01-31T03:07:56;102263.63;;;5.20;76.83
36222;BME280;22266;52.340;4.962;2023-01-31T03:10:38;102255.59;;;5.20;77.10
36222;BME280;22266;52.340;4.962;2023-01-31T03:13:43;102258.03;;;5.23;76.99
36222;BME280;22266;52.340;4.962;2023-01-31T03:16:19;102258.88;;;5.24;77.41
36222;BME280;22266;52.340;4.962;2023-01-31T03:19:10;102246.75;;;5.19;77.36
36222;BME280;22266;52.340;4.962;2023-01-31T03:21:55;102248.59;;;5.19;77.48
36222;BME280;22266;52.340;4.962;2023-01-31T03:24:24;102241.28;;;5.21;77.58
36222;BME280;22266;52.340;4.962;2023-01-31T03:26:55;102243.72;;;5.24;77.70
36222;BME280;22266;52.340;4.962;2023-01-31T03:29:24;102225.41;;;5.19;77.48
36222;BME280;22266;52.340;4.962;2023-01-31T03:31:55;102228.06;;;5.19;77.73
36222;BME280;22266;52.340;4.962;2023-01-31T03:34:24;102225.41;;;5.19;77.55
36222;BME280;22266;52.340;4.962;2023-01-31T03:37:03;102226.25;;;5.20;78.15
36222;BME280;22266;52.340;4.962;2023-01-31T03:40:02;102230.75;;;5.19;78.07
36222;BME280;22266;52.340;4.962;2023-01-31T03:42:44;102221.28;;;5.15;78.05
36222;BME280;22266;52.340;4.962;2023-01-31T03:45:35;102216.91;;;5.14;78.73
36222;BME280;22266;52.340;4.962;2023-01-31T03:48:06;102213.00;;;5.18;78.69
36222;BME280;22266;52.340;4.962;2023-01-31T03:50:43;102215.66;;;5.18;78.84
36222;BME280;22266;52.340;4.962;2023-01-31T03:53:24;102201.38;;;5.19;79.29
36222;BME280;22266;52.340;4.962;2023-01-31T03:56:23;102200.41;;;5.20;78.88
36222;BME280;22266;52.340;4.962;2023-01-31T03:58:56;102199.56;;;5.20;79.01
36222;BME280;22266;52.340;4.962;2023-01-31T04:01:27;102199.31;;;5.23;79.30
36222;BME280;22266;52.340;4.962;2023-01-31T04:03:58;102199.91;;;5.27;79.15
36222;BME280;22266;52.340;4.962;2023-01-31T04:06:27;102193.44;;;5.29;79.36
36222;BME280;22266;52.340;4.962;2023-01-31T04:08:54;102192.34;;;5.32;79.20
36222;BME280;22266;52.340;4.962;2023-01-31T04:11:24;102194.88;;;5.33;79.32
36222;BME280;22266;52.340;4.962;2023-01-31T04:13:51;102191.97;;;5.36;79.20
36222;BME280;22266;52.340;4.962;2023-01-31T04:16:17;102198.00;;;5.38;79.45
36222;BME280;22266;52.340;4.962;2023-01-31T04:18:44;102207.59;;;5.41;79.75
36222;BME280;22266;52.340;4.962;2023-01-31T04:21:12;102195.09;;;5.41;79.15
36222;BME280;22266;52.340;4.962;2023-01-31T04:23:39;102194.13;;;5.42;79.34
36222;BME280;22266;52.340;4.962;2023-01-31T04:26:05;102193.03;;;5.45;79.48
36222;BME280;22266;52.340;4.962;2023-01-31T04:28:32;102174.19;;;5.46;79.82
36222;BME280;22266;52.340;4.962;2023-01-31T04:30:58;102189.72;;;5.53;79.73
36222;BME280;22266;52.340;4.962;2023-01-31T04:33:25;102176.38;;;5.53;79.78
36222;BME280;22266;52.340;4.962;2023-01-31T04:35:52;102171.72;;;5.55;79.42
36222;BME280;22266;52.340;4.962;2023-01-31T04:38:18;102167.13;;;5.57;79.61
36222;BME280;22266;52.340;4.962;2023-01-31T04:40:45;102175.13;;;5.57;79.18
36222;BME280;22266;52.340;4.962;2023-01-31T04:43:12;102164.44;;;5.57;80.25
36222;BME280;22266;52.340;4.962;2023-01-31T04:45:38;102171.38;;;5.59;80.43
36222;BME280;22266;52.340;4.962;2023-01-31T04:48:05;102161.63;;;5.58;80.06
36222;BME280;22266;52.340;4.962;2023-01-31T04:50:33;102162.47;;;5.59;80.34
36222;BME280;22266;52.340;4.962;2023-01-31T04:52:59;102165.16;;;5.59;80.92
36222;BME280;22266;52.340;4.962;2023-01-31T04:55:25;102173.66;;;5.64;80.92
36222;BME280;22266;52.340;4.962;2023-01-31T04:57:53;102167.97;;;5.57;80.83
36222;BME280;22266;52.340;4.962;2023-01-31T05:00:19;102169.75;;;5.68;81.38
36222;BME280;22266;52.340;4.962;2023-01-31T05:02:46;102160.50;;;5.72;80.90
36222;BME280;22266;52.340;4.962;2023-01-31T05:05:13;102159.75;;;5.70;80.99
36222;BME280;22266;52.340;4.962;2023-01-31T05:07:39;102156.69;;;5.75;80.78
36222;BME280;22266;52.340;4.962;2023-01-31T05:10:06;102162.50;;;5.80;81.15
36222;BME280;22266;52.340;4.962;2023-01-31T05:12:33;102157.63;;;5.85;80.88
36222;BME280;22266;52.340;4.962;2023-01-31T05:14:59;102151.88;;;5.89;80.84
36222;BME280;22266;52.340;4.962;2023-01-31T05:17:27;102147.25;;;5.91;80.50
36222;BME280;22266;52.340;4.962;2023-01-31T05:19:56;102142.66;;;5.93;80.19
36222;BME280;22266;52.340;4.962;2023-01-31T05:22:23;102141.53;;;5.96;79.99
36222;BME280;22266;52.340;4.962;2023-01-31T05:24:50;102145.19;;;5.95;79.34
36222;BME280;22266;52.340;4.962;2023-01-31T05:27:18;102147.47;;;6.00;79.13
36222;BME280;22266;52.340;4.962;2023-01-31T05:29:44;102151.00;;;6.00;79.59
36222;BME280;22266;52.340;4.962;2023-01-31T05:32:11;102153.38;;;6.03;79.54
36222;BME280;22266;52.340;4.962;2023-01-31T05:34:38;102159.97;;;5.99;78.92
36222;BME280;22266;52.340;4.962;2023-01-31T05:37:05;102153.78;;;5.99;78.84
36222;BME280;22266;52.340;4.962;2023-01-31T05:39:31;102150.00;;;6.01;78.81
36222;BME280;22266;52.340;4.962;2023-01-31T05:41:58;102133.72;;;6.04;78.78
36222;BME280;22266;52.340;4.962;2023-01-31T05:44:24;102125.41;;;6.07;78.54
36222;BME280;22266;52.340;4.962;2023-01-31T05:46:51;102123.88;;;6.05;79.04
36222;BME280;22266;52.340;4.962;2023-01-31T05:49:17;102135.25;;;6.07;78.76
36222;BME280;22266;52.340;4.962;2023-01-31T05:51:44;102135.25;;;6.07;78.70
36222;BME280;22266;52.340;4.962;2023-01-31T05:54:11;102130.38;;;6.12;78.58
36222;BME280;22266;52.340;4.962;2023-01-31T05:56:37;102117.97;;;6.11;79.04
36222;BME280;22266;52.340;4.962;2023-01-31T05:59:04;102115.78;;;5.95;79.42
36222;BME280;22266;52.340;4.962;2023-01-31T06:01:31;102114.16;;;6.04;79.79
36222;BME280;22266;52.340;4.962;2023-01-31T06:03:57;102110.59;;;6.03;79.14
36222;BME280;22266;52.340;4.962;2023-01-31T06:06:24;102104.00;;;6.07;79.72
36222;BME280;22266;52.340;4.962;2023-01-31T06:08:51;102111.91;;;6.09;79.64
36222;BME280;22266;52.340;4.962;2023-01-31T06:11:17;102111.25;;;6.16;79.00
36222;BME280;22266;52.340;4.962;2023-01-31T06:13:44;102105.59;;;6.10;79.02
36222;BME280;22266;52.340;4.962;2023-01-31T06:16:11;102104.47;;;6.12;79.32
36222;BME280;22266;52.340;4.962;2023-01-31T06:18:37;102107.75;;;6.16;79.19
36222;BME280;22266;52.340;4.962;2023-01-31T06:21:04;102107.75;;;6.16;79.48
36222;BME280;22266;52.340;4.962;2023-01-31T06:23:31;102109.44;;;6.17;79.24
36222;BME280;22266;52.340;4.962;2023-01-31T06:25:59;102104.19;;;6.15;80.29
36222;BME280;22266;52.340;4.962;2023-01-31T06:28:26;102100.16;;;6.21;79.45
36222;BME280;22266;52.340;4.962;2023-01-31T06:30:52;102093.78;;;6.12;79.24
36222;BME280;22266;52.340;4.962;2023-01-31T06:33:19;102083.22;;;6.11;79.61
36222;BME280;22266;52.340;4.962;2023-01-31T06:35:49;102074.63;;;6.07;79.72
36222;BME280;22266;52.340;4.962;2023-01-31T06:38:16;102068.88;;;6.12;80.22
36222;BME280;22266;52.340;4.962;2023-01-31T06:40:42;102066.91;;;6.14;79.88
36222;BME280;22266;52.340;4.962;2023-01-31T06:43:08;102069.31;;;6.17;79.95
36222;BME280;22266;52.340;4.962;2023-01-31T06:45:35;102061.16;;;6.18;79.46
36222;BME280;22266;52.340;4.962;2023-01-31T06:48:03;102063.53;;;6.12;79.91
36222;BME280;22266;52.340;4.962;2023-01-31T06:50:29;102073.94;;;6.15;80.31
36222;BME280;22266;52.340;4.962;2023-01-31T06:52:56;102065.91;;;6.15;80.33
36222;BME280;22266;52.340;4.962;2023-01-31T06:55:24;102069.44;;;6.15;79.61
36222;BME280;22266;52.340;4.962;2023-01-31T06:57:51;102053.94;;;6.09;80.57
36222;BME280;22266;52.340;4.962;2023-01-31T07:00:18;102064.97;;;6.16;80.46
36222;BME280;22266;52.340;4.962;2023-01-31T07:02:45;102068.59;;;6.15;79.99
36222;BME280;22266;52.340;4.962;2023-01-31T07:05:12;102061.16;;;6.18;79.81
36222;BME280;22266;52.340;4.962;2023-01-31T07:07:39;102069.44;;;6.15;80.16
36222;BME280;22266;52.340;4.962;2023-01-31T07:10:06;102073.81;;;6.16;80.46
36222;BME280;22266;52.340;4.962;2023-01-31T07:12:33;102065.50;;;6.10;81.71
36222;BME280;22266;52.340;4.962;2023-01-31T07:14:59;102061.25;;;6.07;81.02
36222;BME280;22266;52.340;4.962;2023-01-31T07:17:26;102063.81;;;6.09;81.59
36222;BME280;22266;52.340;4.962;2023-01-31T07:19:53;102054.66;;;6.11;81.69
36222;BME280;22266;52.340;4.962;2023-01-31T07:22:19;102053.13;;;6.09;81.42
36222;BME280;22266;52.340;4.962;2023-01-31T07:24:45;102056.63;;;6.09;81.94
36222;BME280;22266;52.340;4.962;2023-01-31T07:27:14;102045.34;;;6.06;82.50
36222;BME280;22266;52.340;4.962;2023-01-31T07:29:40;102046.91;;;6.08;82.24
36222;BME280;22266;52.340;4.962;2023-01-31T07:32:07;102041.44;;;6.10;82.94
36222;BME280;22266;52.340;4.962;2023-01-31T07:34:33;102031.63;;;6.20;82.55
36222;BME280;22266;52.340;4.962;2023-01-31T07:37:00;102043.00;;;6.22;81.67
36222;BME280;22266;52.340;4.962;2023-01-31T07:39:27;102037.09;;;6.18;81.17
36222;BME280;22266;52.340;4.962;2023-01-31T07:41:55;102040.91;;;6.16;81.84
36222;BME280;22266;52.340;4.962;2023-01-31T07:44:23;102024.13;;;6.14;82.16
36222;BME280;22266;52.340;4.962;2023-01-31T07:46:49;102023.88;;;6.17;81.60
36222;BME280;22266;52.340;4.962;2023-01-31T07:49:17;102012.34;;;6.16;80.91
36222;BME280;22266;52.340;4.962;2023-01-31T07:51:43;102014.16;;;6.16;81.44
36222;BME280;22266;52.340;4.962;2023-01-31T07:54:10;102010.19;;;6.10;81.49
36222;BME280;22266;52.340;4.962;2023-01-31T07:56:37;102018.88;;;6.03;81.08
36222;BME280;22266;52.340;4.962;2023-01-31T07:59:04;102022.69;;;6.00;81.39
36222;BME280;22266;52.340;4.962;2023-01-31T08:01:30;102017.88;;;5.94;81.47
36222;BME280;22266;52.340;4.962;2023-01-31T08:04:16;102017.34;;;6.00;81.63
36222;BME280;22266;52.340;4.962;2023-01-31T08:06:48;102010.47;;;6.07;81.36
36222;BME280;22266;52.340;4.962;2023-01-31T08:09:15;102010.59;;;6.06;81.38
36222;BME280;22266;52.340;4.962;2023-01-31T08:11:42;102001.47;;;6.08;80.95
36222;BME280;22266;52.340;4.962;2023-01-31T08:14:09;101999.75;;;6.07;81.45
36222;BME280;22266;52.340;4.962;2023-01-31T08:16:35;101987.66;;;6.03;81.04
36222;BME280;22266;52.340;4.962;2023-01-31T08:19:02;102001.19;;;6.11;81.55
36222;BME280;22266;52.340;4.962;2023-01-31T08:21:29;101989.53;;;6.12;81.15
36222;BME280;22266;52.340;4.962;2023-01-31T08:23:55;101991.78;;;6.17;81.38
36222;BME280;22266;52.340;4.962;2023-01-31T08:26:22;102005.44;;;6.24;81.23
36222;BME280;22266;52.340;4.962;2023-01-31T08:28:50;101996.88;;;6.30;80.95
36222;BME280;22266;52.340;4.962;2023-01-31T08:31:20;102009.13;;;6.32;81.09
36222;BME280;22266;52.340;4.962;2023-01-31T08:33:47;101980.41;;;6.25;81.88
36222;BME280;22266;52.340;4.962;2023-01-31T08:36:22;101991.09;;;6.25;81.44
36222;BME280;22266;52.340;4.962;2023-01-31T08:38:49;101979.28;;;6.27;82.03
36222;BME280;22266;52.340;4.962;2023-01-31T08:41:17;101986.19;;;6.30;81.83
36222;BME280;22266;52.340;4.962;2023-01-31T08:43:44;102002.38;;;6.38;81.80
36222;BME280;22266;52.340;4.962;2023-01-31T08:46:26;102005.34;;;6.44;81.68
36222;BME280;22266;52.340;4.962;2023-01-31T08:48:56;102000.97;;;6.43;82.16
36222;BME280;22266;52.340;4.962;2023-01-31T08:51:22;101995.19;;;6.48;82.09
36222;BME280;22266;52.340;4.962;2023-01-31T08:53:49;102007.31;;;6.52;82.22
36222;BME280;22266;52.340;4.962;2023-01-31T08:56:16;101980.56;;;6.52;82.04
36222;BME280;22266;52.340;4.962;2023-01-31T08:58:44;101976.34;;;6.50;82.17
36222;BME280;22266;52.340;4.962;2023-01-31T09:01:13;101974.81;;;6.57;82.50
36222;BME280;22266;52.340;4.962;2023-01-31T09:03:40;101961.56;;;6.55;81.84
36222;BME280;22266;52.340;4.962;2023-01-31T09:06:13;101956.78;;;6.59;82.78
36222;BME280;22266;52.340;4.962;2023-01-31T09:08:40;101952.72;;;6.64;81.96
36222;BME280;22266;52.340;4.962;2023-01-31T09:11:07;101943.69;;;6.65;81.74
36222;BME280;22266;52.340;4.962;2023-01-31T09:13:34;101951.84;;;6.64;82.12
36222;BME280;22266;52.340;4.962;2023-01-31T09:16:06;101956.34;;;6.63;81.88
36222;BME280;22266;52.340;4.962;2023-01-31T09:18:37;101959.31;;;6.70;81.66
36222;BME280;22266;52.340;4.962;2023-01-31T09:21:09;101953.28;;;6.58;82.42
36222;BME280;22266;52.340;4.962;2023-01-31T09:23:36;101966.09;;;6.64;82.53
36222;BME280;22266;52.340;4.962;2023-01-31T09:26:07;101951.84;;;6.64;82.69
36222;BME280;22266;52.340;4.962;2023-01-31T09:28:34;101948.06;;;6.66;82.80
36222;BME280;22266;52.340;4.962;2023-01-31T09:31:05;101938.06;;;6.78;82.18
36222;BME280;22266;52.340;4.962;2023-01-31T09:33:32;101940.31;;;6.73;82.68
36222;BME280;22266;52.340;4.962;2023-01-31T09:36:02;101940.44;;;6.72;83.04
36222;BME280;22266;52.340;4.962;2023-01-31T09:38:29;101936.09;;;6.71;83.55
36222;BME280;22266;52.340;4.962;2023-01-31T09:40:58;101929.72;;;6.72;83.74
36222;BME280;22266;52.340;4.962;2023-01-31T09:43:31;101939.03;;;6.77;82.67
36222;BME280;22266;52.340;4.962;2023-01-31T09:46:01;101936.50;;;6.85;83.77
36222;BME280;22266;52.340;4.962;2023-01-31T09:48:33;101949.44;;;6.90;82.55
36222;BME280;22266;52.340;4.962;2023-01-31T09:51:01;101949.28;;;6.91;82.88
36222;BME280;22266;52.340;4.962;2023-01-31T09:53:34;101939.72;;;6.99;82.63
36222;BME280;22266;52.340;4.962;2023-01-31T09:56:13;101935.63;;;6.94;82.86
36222;BME280;22266;52.340;4.962;2023-01-31T09:59:06;101945.22;;;6.97;83.30
36222;BME280;22266;52.340;4.962;2023-01-31T10:04:33;101943.63;;;7.04;82.75
36222;BME280;22266;52.340;4.962;2023-01-31T10:07:23;101946.06;;;6.98;83.66
36222;BME280;22266;52.340;4.962;2023-01-31T10:09:57;101943.06;;;7.01;83.10
36222;BME280;22266;52.340;4.962;2023-01-31T10:12:37;101936.88;;;7.00;83.30
36222;BME280;22266;52.340;4.962;2023-01-31T10:15:12;101931.81;;;7.07;83.39
36222;BME280;22266;52.340;4.962;2023-01-31T10:17:46;101941.22;;;7.11;83.43
36222;BME280;22266;52.340;4.962;2023-01-31T10:28:19;101931.34;;;7.11;84.17
36222;BME280;22266;52.340;4.962;2023-01-31T10:31:06;101925.56;;;7.16;83.48
36222;BME280;22266;52.340;4.962;2023-01-31T10:36:37;101930.09;;;7.15;83.48
36222;BME280;22266;52.340;4.962;2023-01-31T10:39:27;101927.56;;;7.14;83.49
36222;BME280;22266;52.340;4.962;2023-01-31T10:42:13;101935.16;;;7.18;83.52
36222;BME280;22266;52.340;4.962;2023-01-31T10:44:51;101943.59;;;7.24;83.52
36222;BME280;22266;52.340;4.962;2023-01-31T10:47:20;101943.19;;;7.18;83.28
36222;BME280;22266;52.340;4.962;2023-01-31T10:49:50;101939.22;;;7.23;82.95
36222;BME280;22266;52.340;4.962;2023-01-31T10:52:36;101947.09;;;7.24;83.10
36222;BME280;22266;52.340;4.962;2023-01-31T10:57:51;101950.63;;;7.25;82.58
36222;BME280;22266;52.340;4.962;2023-01-31T11:00:22;101944.69;;;7.31;82.87
36222;BME280;22266;52.340;4.962;2023-01-31T11:02:49;101952.28;;;7.35;82.31
36222;BME280;22266;52.340;4.962;2023-01-31T11:05:19;101955.81;;;7.36;82.53
36222;BME280;22266;52.340;4.962;2023-01-31T11:07:46;101959.66;;;7.33;82.24
36222;BME280;22266;52.340;4.962;2023-01-31T11:10:21;101952.13;;;7.37;82.58
36222;BME280;22266;52.340;4.962;2023-01-31T11:13:00;101959.34;;;7.36;82.08
36222;BME280;22266;52.340;4.962;2023-01-31T11:15:40;101953.84;;;7.38;82.40
36222;BME280;22266;52.340;4.962;2023-01-31T11:18:14;101956.38;;;7.39;81.95
36222;BME280;22266;52.340;4.962;2023-01-31T11:20:46;101952.56;;;7.42;81.67
36222;BME280;22266;52.340;4.962;2023-01-31T11:23:15;101944.66;;;7.40;82.30
36222;BME280;22266;52.340;4.962;2023-01-31T11:25:48;101944.22;;;7.45;82.28
36222;BME280;22266;52.340;4.962;2023-01-31T11:28:19;101940.25;;;7.49;81.93
36222;BME280;22266;52.340;4.962;2023-01-31T11:30:49;101945.09;;;7.46;82.08
36222;BME280;22266;52.340;4.962;2023-01-31T11:33:54;101937.63;;;7.39;82.38
36222;BME280;22266;52.340;4.962;2023-01-31T11:36:21;101935.06;;;7.48;81.94
36222;BME280;22266;52.340;4.962;2023-01-31T11:38:49;101940.81;;;7.53;81.80
36222;BME280;22266;52.340;4.962;2023-01-31T11:41:34;101936.56;;;7.60;81.86
36222;BME280;22266;52.340;4.962;2023-01-31T11:44:10;101930.19;;;7.61;81.33
36222;BME280;22266;52.340;4.962;2023-01-31T11:49:27;101907.47;;;7.65;81.80
36222;BME280;22266;52.340;4.962;2023-01-31T11:52:00;101900.25;;;7.65;81.78
36222;BME280;22266;52.340;4.962;2023-01-31T11:54:30;101889.41;;;7.67;81.58
36222;BME280;22266;52.340;4.962;2023-01-31T11:56:59;101889.25;;;7.68;81.92
36222;BME280;22266;52.340;4.962;2023-01-31T11:59:28;101893.88;;;7.76;81.58
36222;BME280;22266;52.340;4.962;2023-01-31T12:01:57;101894.50;;;7.88;81.24
36222;BME280;22266;52.340;4.962;2023-01-31T12:04:40;101885.25;;;7.82;81.18
36222;BME280;22266;52.340;4.962;2023-01-31T12:07:31;101878.88;;;7.83;81.30
36222;BME280;22266;52.340;4.962;2023-01-31T12:10:25;101870.84;;;7.83;81.14
36222;BME280;22266;52.340;4.962;2023-01-31T12:12:53;101870.63;;;7.95;81.25
36222;BME280;22266;52.340;4.962;2023-01-31T12:21:28;101878.13;;;8.09;80.09
36222;BME280;22266;52.340;4.962;2023-01-31T12:24:02;101871.25;;;8.06;80.34
36222;BME280;22266;52.340;4.962;2023-01-31T12:26:51;101864.44;;;8.12;80.55
36222;BME280;22266;52.340;4.962;2023-01-31T12:35:38;101857.38;;;8.29;80.23
36222;BME280;22266;52.340;4.962;2023-01-31T12:38:14;101851.47;;;8.25;80.29
36222;BME280;22266;52.340;4.962;2023-01-31T12:46:11;101846.34;;;8.32;79.96
36222;BME280;22266;52.340;4.962;2023-01-31T13:02:21;101843.28;;;8.45;79.26
36222;BME280;22266;52.340;4.962;2023-01-31T13:05:02;101830.88;;;8.44;78.85
36222;BME280;22266;52.340;4.962;2023-01-31T13:07:43;101839.91;;;8.42;79.04
36222;BME280;22266;52.340;4.962;2023-01-31T13:10:32;101820.19;;;8.52;79.70
36222;BME280;22266;52.340;4.962;2023-01-31T13:13:01;101837.63;;;8.48;78.93
36222;BME280;22266;52.340;4.962;2023-01-31T13:15:39;101826.56;;;8.51;79.34
36222;BME280;22266;52.340;4.962;2023-01-31T13:18:10;101826.94;;;8.56;78.82
36222;BME280;22266;52.340;4.962;2023-01-31T13:20:56;101831.06;;;8.50;78.66
36222;BME280;22266;52.340;4.962;2023-01-31T13:23:48;101841.06;;;8.40;79.32
36222;BME280;22266;52.340;4.962;2023-01-31T13:26:19;101844.41;;;8.42;79.14
36222;BME280;22266;52.340;4.962;2023-01-31T13:28:53;101855.69;;;8.46;79.13
36222;BME280;22266;52.340;4.962;2023-01-31T13:31:29;101834.94;;;8.48;78.86
36222;BME280;22266;52.340;4.962;2023-01-31T13:34:05;101835.13;;;8.36;79.46
36222;BME280;22266;52.340;4.962;2023-01-31T13:36:47;101854.63;;;8.38;80.29
36222;BME280;22266;52.340;4.962;2023-01-31T13:42:28;101856.94;;;8.51;78.93
36222;BME280;22266;52.340;4.962;2023-01-31T13:45:00;101859.19;;;8.64;79.10
36222;BME280;22266;52.340;4.962;2023-01-31T13:47:39;101855.34;;;8.66;78.89
36222;BME280;22266;52.340;4.962;2023-01-31T13:50:26;101872.44;;;8.65;78.72
36222;BME280;22266;52.340;4.962;2023-01-31T13:52:57;101874.00;;;8.68;78.44
36222;BME280;22266;52.340;4.962;2023-01-31T13:55:36;101887.56;;;8.66;78.60
36222;BME280;22266;52.340;4.962;2023-01-31T13:58:06;101885.03;;;8.65;78.22
36222;BME280;22266;52.340;4.962;2023-01-31T14:00:37;101884.38;;;8.63;78.33
36222;BME280;22266;52.340;4.962;2023-01-31T14:03:17;101882.28;;;8.57;78.20
36222;BME280;22266;52.340;4.962;2023-01-31T14:10:54;101905.50;;;8.66;76.71
36222;BME280;22266;52.340;4.962;2023-01-31T14:15:57;101887.94;;;8.72;76.69
36222;BME280;22266;52.340;4.962;2023-01-31T14:18:41;101900.97;;;8.66;75.88
36222;BME280;22266;52.340;4.962;2023-01-31T14:23:59;101906.88;;;8.70;76.32
36222;BME280;22266;52.340;4.962;2023-01-31T14:29:14;101905.50;;;8.66;76.06
36222;BME280;22266;52.340;4.962;2023-01-31T14:31:43;101908.06;;;8.68;75.74
36222;BME280;22266;52.340;4.962;2023-01-31T14:34:24;101916.69;;;8.79;75.48
36222;BME280;22266;52.340;4.962;2023-01-31T14:37:03;101920.53;;;8.77;75.51
36222;BME280;22266;52.340;4.962;2023-01-31T14:39:48;101921.72;;;8.82;74.92
36222;BME280;22266;52.340;4.962;2023-01-31T14:45:02;101917.53;;;8.80;74.04
36222;BME280;22266;52.340;4.962;2023-01-31T14:47:38;101924.41;;;8.82;74.55
36222;BME280;22266;52.340;4.962;2023-01-31T14:50:34;101933.00;;;8.86;75.00